Florida AWOS List, Phone Numbers

USA |  
| Search AWOS

Rocky Mountain States: Montana | Wyoming | Colorado | New Mexico

Complete weather reports: Florida

Legend: KFNL = METAR available Follow your local AWOS on AV Mobile = METAR available on AV Mobile
Station Florida Location Frequency Phone
KAQQICAO ID KAQQ Apalachicola, Apalachicola
KAAFFAA ID AAF, ASOS, KAAF 251453Z AUTO 22011KT 10SM BKN026 BKN037 29/23 A3007 Follow KAAF on AV Mobile APALACHICOLA MUNICIPAL AIRPORT 119.925 850-653-8271
KNAEICAO ID KNAE Astor, Bombing Range Detachment Astor
KAVOFAA ID AVO, AWOS-3 AVON PARK 118.725 863-453-4223
KAGRFAA ID AGR Avon Park Gunnery Range
KBOWFAA ID BOW, AWOS-3, KBOW 251447Z 22005KT 10SM FEW022 30/23 A3011 Follow KBOW on AV Mobile Bartow Municipal 123.775 863-533-9004
F95FAA ID F95, AWOS-AV, KAJZ 251515Z AUTO 06004KT 10SM OVC100 23/11 A3023 RMK AO2 T02310112 Follow  on AV Mobile BLOUNTSTOWN 119.350 850-674-1347
KBCTFAA ID BCT, AWOS-3, KBCT 251350Z 00000KT 10SM CLR 30/24 A3011 Follow KBCT on AV Mobile Boca Raton, Boca Raton Airport 121.125 561-391-2696
K1J0FAA ID 1J0, K1J0 251458Z AUTO 00000KT 10SM FEW019 SCT025 BKN037 29/24 A3005 RMK AO2 SLP135 60000 T02890239 50001 Follow K1J0 on AV Mobile TRI COUNTY AIRPORT
KBKVFAA ID BKV, ASOS, KBKV 251453Z 00000KT 10SM FEW043 SCT075 SCT100 28/24 A3010 RMK AO2 LTG DSNT S AND W RAB15E27 TSE43 SLP191 P0001 60001 T02780239 50003 Follow KBKV on AV Mobile BROOKSVILLE HERNANDO CO AIRPORT 134.725 352-799-5881
K1J4ICAO ID K1J4 Cape San Blas Coast Guard Station
KNZCICAO ID KNZC Cecil, Naval Air Station
2ISFAA ID 2IS, AWOS-3, KAJZ 251515Z AUTO 06004KT 10SM OVC100 23/11 A3023 RMK AO2 T02310112 Follow  on AV Mobile CLEWISTON 124.175 863-983-7020
KX53ICAO ID KX53 Clewiston
KCOFFAA ID COF, KCOF 251458Z AUTO VRB04KT 10SM CLR 31/26 A3010 RMK AO2 SLP197 T03060255 51003 Follow KCOF on AV Mobile Cocoa / Patrick Air Force Base
KXMRFAA ID XMR, KXMR 251458Z AUTO VRB03KT 10SM CLR 31/24 A3009 RMK AO2 SLP192 T03080238 51005 Follow KXMR on AV Mobile Cocoa Beach, Cape Canaveral Air Force Station Skid Strip
KCEWFAA ID CEW, ASOS, KCEW 251453Z AUTO 29004KT 10SM FEW019 30/23 A3005 Follow KCEW on AV Mobile CRESTVIEW SIKES AIRPORT 119.275 850-682-1237
KEGIFAA ID EGI, KEGI 251455Z 18007KT 10SM SCT028 SCT120 28/25 A3004 RMK AO2A SLP171 MDT CU S-SW T02840255 51003 $ Follow KEGI on AV Mobile Duke Field / Eglin Auxiliary
KCTYFAA ID CTY, KCTY 251453Z AUTO 26008KT 31/24 A3008 Follow KCTY on AV Mobile CROSS CITY AIRPORT
KCGCFAA ID CGC, AWOS-3, KCGC 251455Z AUTO 21004KT 10SM SCT027 31/22 A3009 RMK AO2 LTG DSNT S PWINO Follow KCGC on AV Mobile CRYSTAL RIVER 118.325 352-563-6600
KDABFAA ID DAB, ASOS, KDAB 251453Z 21004KT 10SM SCT030 SCT037 SCT250 31/23 A3008 Follow KDAB on AV Mobile DAYTONA BEACH INTERNATIONAL 386-253-7469
54JFAA ID 54J, AWOS-3P, KAJZ 251515Z AUTO 06004KT 10SM OVC100 23/11 A3023 RMK AO2 T02310112 Follow  on AV Mobile DEFUNIAK SPRINGS 118.725 850-892-0147
KDEDFAA ID DED, AWOS-3, KDED 251455Z AUTO 00000KT 10SM SCT031 31/23 A3009 RMK AO1 Follow KDED on AV Mobile DELAND 119.575 386-740-5811
KDTSFAA ID DTS, ASOS, KDTS 251453Z AUTO 19004KT 10SM CLR 30/25 A3004 RMK AO2 SLP170 T03000250 50004 TSNO Follow KDTS on AV Mobile DESTIN-FT WALTON BEACH AIRPORT 133.925 850-654-7128
KX91ICAO ID KX91 Egmont Key Coast Guard Station
KFHBFAA ID FHB, AWOS-3, KFHB 251455Z AUTO 29009G14KT 10SM SCT027 SCT032 31/22 A3005 RMK AO1 Follow KFHB on AV Mobile FERNANDINA BEACH 118.075 904-277-7323
KFXEFAA ID FXE, ASOS, KFXE 251453Z 00000KT 10SM SCT038 32/23 A3010 Follow KFXE on AV Mobile FORT LAUDERDALE EXECUTIVE 954-772-2537
KFLLFAA ID FLL, ASOS, KFLL 251453Z 18004KT 10SM SCT025 SCT250 31/22 A3010 Follow KFLL on AV Mobile FORT LAUDERDALE/HOLLYWOOD 954-359-7857
KFMYFAA ID FMY, ASOS, KFMY 251453Z 17007KT 10SM SCT034 31/24 A3009 RMK AO2 SLP189 T03110244 50006 Follow KFMY on AV Mobile FORT MYERS PAGE FIELD 239-936-2318
KRSWFAA ID RSW, ASOS, KRSW 251453Z 14005KT 10SM CLR 29/24 A3010 Follow KRSW on AV Mobile FORT MYERS SW FL INTERNATIONAL AIRPORT 239-561-0966
KX82ICAO ID KX82 Fort Pierce Coast Guard Station
KFPRFAA ID FPR, ASOS, KFPR 251453Z 00000KT 10SM FEW026 32/24 A3009 Follow KFPR on AV Mobile FORT PIERCE ST LUCIE 772-489-4281
KX86ICAO ID KX86 Fowey Rocks Coast Guard Station
KX89ICAO ID KX89 Ft. Myers Beach Coast Guard Station
KGNVFAA ID GNV, ASOS, KGNV 251453Z 26014G19KT 10SM FEW028 31/24 A3008 Follow KGNV on AV Mobile GAINESVILLE REGIONAL AIRPORT 352-335-8672
KHWOFAA ID HWO, ASOS, KHWO 251453Z 28004KT 10SM CLR 31/23 A3012 RMK AO2 SLP198 T03110233 51007 Follow KHWO on AV Mobile HOLLYWOOD NORTH PERRY AIRPORT 954-983-5904
X51FAA ID X51, AWOS-3, KAJZ 251515Z AUTO 06004KT 10SM OVC100 23/11 A3023 RMK AO2 T02310112 Follow  on AV Mobile HOMESTEAD 118.375 (305) 247-2791
KHSTFAA ID HST, KHST 251458Z AUTO 05004KT 10SM CLR 31/24 A3011 RMK AO2 DZE1417 SLP199 P0000 60015 T03050242 52008 Follow KHST on AV Mobile Homestead Air Force Base
KIMMFAA ID IMM, AWOS-3, KIMM 251455Z AUTO 14007KT 7SM SCT047 SCT065 34/26 A3011 RMK A01 P000 Follow KIMM on AV Mobile IMMOKALEE 118.525 239-657-2038
KINFFAA ID INF, AWOS-3, KINF 251455Z AUTO 00000KT 10SM SCT026 SCT031 BKN043 29/22 A3009 RMK AO2 LTG DSNT S Follow KINF on AV Mobile INVERNESS 119.975 352-341-0264
KX84ICAO ID KX84 Islamorada Coast Guard Station
KHEGFAA ID HEG, AWOS-3 JACKSONVILLE 119.275 904-695-0334
KCRGFAA ID CRG, ASOS, KCRG 251453Z 29007KT 10SM FEW030 SCT039 31/23 A3007 RMK AO2 SLP182 T03110233 51003 Follow KCRG on AV Mobile JACKSONVILLE CRAIG MUN 904-646-4670
KJAXFAA ID JAX, ASOS, KJAX 251456Z 25011KT 10SM SCT030 31/24 A3006 Follow KJAX on AV Mobile JACKSONVILLE INTERNATIONAL 904-741-4304
KNIPFAA ID NIP, KNIP 251453Z 28007KT 240V310 10SM SCT030 SCT250 32/23 A3008 RMK AO2 SLP180 T03220228 51003 Follow KNIP on AV Mobile JACKSONVILLE NAVAL AIR STN
KVQQFAA ID VQQ, AWOS-3, KVQQ 251450Z 27008KT 10SM BKN028 31/23 A3008 Follow KVQQ on AV Mobile Jacksonville, Cecil Field Airport 125.275 904-778-6934
KNENFAA ID NEN NOLF WHITEHOUSE FIELD, FL
KX80ICAO ID KX80 Jupiter Inlet Coast Guard Station
KEYWFAA ID EYW, ASOS, KEYW 251453Z 15006KT 10SM CLR 32/24 A3010 Follow KEYW on AV Mobile KEY WEST INTERNATIONAL AIRPORT 119.65 305-292-4046
KNQXFAA ID NQX, KNQX 251453Z 13007KT 10SM SCT025 SCT250 32/25 A3009 RMK AO2 SLP189 T03220250 51010 $ Follow KNQX on AV Mobile KEY WEST NAVAL AIR STATION
K42JFAA ID 42J, AWOS-3, K42J 251455Z AUTO 26005KT 10SM SCT027 BKN032 BKN047 30/24 A3009 RMK AO1 Follow K42J on AV Mobile KEYSTONE HEIGHTS 124.275 352-473-8273
KLCQFAA ID LCQ, AWOS-3, KLCQ 251455Z AUTO 10SM SCT023 BKN037 SCT044 30/23 A3008 RMK AO2 Follow KLCQ on AV Mobile LAKE CITY 120.675 386-754-9366
X07FAA ID X07, AWOS-3, KAJZ 251515Z AUTO 06004KT 10SM OVC100 23/11 A3023 RMK AO2 T02310112 Follow  on AV Mobile LAKE WALES 124.225 863-678-1334
KX81ICAO ID KX81 Lake Worth Inlet
KLALFAA ID LAL, AWOS-3PT, KLAL 251450Z 24005KT 10SM BKN026 31/22 A3011 Follow KLAL on AV Mobile Lakeland Regional 118.025 863-834-2030
KLEEFAA ID LEE, ASOS, KLEE 251453Z 22006KT 10SM FEW026 32/24 A3010 RMK AO2 SLP190 T03170239 50003 Follow KLEE on AV Mobile LEESBURG REGIONAL AIRPORT 134.325 352-787-1565
24JFAA ID 24J, AWOS-3, KAJZ 251515Z AUTO 06004KT 10SM OVC100 23/11 A3023 RMK AO2 T02310112 Follow  on AV Mobile LIVE OAK 118.225 386-362-1731
KX88ICAO ID KX88 Marathon Coast Guard Station
KMTHFAA ID MTH, ASOS, KMTH 251453Z AUTO 13004KT 10SM CLR 32/26 A3010 RMK AO2 SLP190 T03220256 51010 Follow KMTH on AV Mobile MARATHON AIRPORT 135.525 305-743-8373
KMKYFAA ID MKY, AWOS-3, KMKY 251455Z AUTO 14003KT 10SM FEW080 28/25 A3011 RMK AO1 60002 52007 Follow KMKY on AV Mobile MARCO ISLAND 120.075 239-394-8187
KMAIFAA ID MAI, ASOS, KMAI 251453Z AUTO 24006KT 10SM FEW018 SCT050 SCT065 28/24 A3005 RMK AO2 SLP174 T02830244 51005 Follow KMAI on AV Mobile MARIANNA MUNICIPAL AIRPORT 133.525 850-482-6082
KHRTFAA ID HRT, KHRT 251458Z AUTO 22008KT 10SM FEW020 30/22 A3003 RMK AO2 SLP171 T02990223 50005 $ Follow KHRT on AV Mobile Hurlburt Field
KNRBFAA ID NRB, KNRB 251452Z 25006KT 10SM SCT025 31/23 A3007 RMK AO2 SLP180 T03110228 50003 $ Follow KNRB on AV Mobile MAYPORT NAVAL AIR FACILITY
KMLBFAA ID MLB, ASOS, KMLB 251453Z 23004KT 10SM FEW020 31/24 A3009 Follow KMLB on AV Mobile MELBOURNE INTERNATIONAL 321-723-7403
KCOIFAA ID COI, AWOS-3 Merritt Island, Merritt Island Airport 119.025 321-986-8864
KTNTFAA ID TNT, AWOS-3 MIAMI 119.075 (239) 695-9198
KX87ICAO ID KX87 Miami Beach Coast Guard Station
KAMXICAO ID KAMX Miami Nexrad
KTMBFAA ID TMB, ASOS, KTMB 251453Z VRB03KT 10SM FEW032 31/23 A3011 Follow KTMB on AV Mobile KENDALL-TAMIAMI EXEC AIRPORT 305-235-1332
KMIAFAA ID MIA, ASOS, KMIA 251453Z 10003KT 10SM BKN035TCU BKN300 32/23 A3010 Follow KMIA on AV Mobile MIAMI INTERNATIONAL AIRPORT 305-870-0235
KOPFFAA ID OPF, KOPF 251453Z 24003KT 10SM FEW037 31/23 A3011 Follow KOPF on AV Mobile MIAMI OPA LOCKA AIRPORT
KNFJFAA ID NFJ CHOCTAW, WHITING FIELD, NOLF
KNSEFAA ID NSE, KNSE 251456Z 00000KT 10SM SCT020 SCT038 BKN250 29/23 A3004 RMK AO2 SLP155 T2 SET T02890228 50005 Follow KNSE on AV Mobile MILTON WHITING FIELD (NORTH)
KNDZFAA ID NDZ, KNDZ 251456Z 00000KT 10SM FEW017 SCT030 BKN250 29/23 A3004 RMK AO2 SLP155 T02940233 50005 $ Follow KNDZ on AV Mobile MILTON WHITING FIELD (SOUTH)
KAPFFAA ID APF, ASOS, KAPF 251453Z 14006KT 10SM CLR 29/26 A3010 Follow KAPF on AV Mobile NAPLES MUNICIPAL AIRPORT 239-643-9886
KRRFICAO ID KRRF New Port Richey, Tampa Bay Executive Airport
KEVBFAA ID EVB, AWOS-3, KEVB 251450Z 28005KT 10SM SCT026 32/24 A3009 Follow KEVB on AV Mobile New Smyrna Beach, New Smyrna Beach Municipal Airport 124.625 386-409-4705
KOCFFAA ID OCF, AWOS-3, KOCF 251450Z 22005KT 10SM BKN027 31/22 A3009 Follow KOCF on AV Mobile Ocala, Ocala International Airport-Jim Taylor Field 128.125 352-237-8525
KOBEFAA ID OBE, AWOS-3, KOBE 251455Z AUTO 10SM CLR 30/25 A3010 RMK AO2 Follow KOBE on AV Mobile Okeechobee County Airport 118.675 863-467-1148
KORLFAA ID ORL, ASOS, KORL 251453Z 22004KT 10SM CLR 31/24 A3009 RMK AO2 SLP193 T03060239 51004 Follow KORL on AV Mobile ORLANDO EXECUTIVE AIRPORT 407-658-6753
KMCOFAA ID MCO, ASOS, KMCO 251453Z 25003KT 10SM SCT027 30/22 A3010 Follow KMCO on AV Mobile ORLANDO INTERNATIONAL AIRPORT 407-855-5235
KSFBFAA ID SFB, ASOS, KSFB 251053Z 21003KT 10SM SKC 26/24 A3007 Follow KSFB on AV Mobile ORLANDO SANFORD AIRPORT 407-321-9384
KISMFAA ID ISM, AWOS-3, KISM 251450Z 00000KT 10SM SCT025 30/24 A3010 Follow KISM on AV Mobile Orlando, Kissimmee Municipal Airport 128.775 407-847-0533
KOMNFAA ID OMN, AWOS-3, KOMN 251450Z 27004KT 10SM SCT031 30/24 A3008 Follow KOMN on AV Mobile Ormond Beach, Ormond Beach Municipal Airport 118.475 386-615-7084
28JFAA ID 28J, AWOS-3, KAJZ 251515Z AUTO 06004KT 10SM OVC100 23/11 A3023 RMK AO2 T02310112 Follow  on AV Mobile PALATKA 119.92 386-312-2212
KXFLFAA ID XFL, AWOS-3, KXFL 251450Z 23004KT 7SM SCT025 31/24 A3008 Follow KXFL on AV Mobile PALM COAST 128.325 386-437-7334
KECPFAA ID ECP, ASOS, KECP 251453Z 19005KT 10SM CLR 29/24 A3004 Follow KECP on AV Mobile PANAMA CITY 119.975 850-235-7857
KPFNICAO ID KPFN, KPFN 030253Z VRB03KT 10SM FEW023 25/23 A2989 Follow KPFN on AV Mobile PANAMA CITY-BAY CTY INTERNATIONAL
KPAMFAA ID PAM, KPAM 251458Z 21009KT 10SM FEW025 FEW200 30/25 A3006 RMK AO2A SLP182 60000 T03000250 51007 $ Follow KPAM on AV Mobile Tyndall Air Force Base
KPNSFAA ID PNS, ASOS, KPNS 251453Z SCT017 SCT025 SCT031 A3003 Follow KPNS on AV Mobile PENSACOLA REGIONAL AIRPORT 850-436-4799
KNPAFAA ID NPA, KNPA 251503Z 21005KT 10SM 29/24 A3003 RMK AO2 T02940244 $ Follow KNPA on AV Mobile Pensacola, Naval Air Station
K40JFAA ID 40J, AWOS-3PT, K40J 251455Z AUTO 31006KT 10SM SCT022 SCT031 BKN055 28/24 A3008 RMK AO2 Follow K40J on AV Mobile PERRY-FOLEY AIRPORT 118.375 850-838-3526
FA54FAA ID FA54, Belfort CORAL CREEK
KPCMFAA ID PCM, AWOS-3, KPCM 251455Z AUTO 27003KT 10SM SCT030 32/23 A3012 RMK AO2 Follow KPCM on AV Mobile Plant City, Plant City Municipal Airport 120.025 813-764-8259
KPMPFAA ID PMP, ASOS, KPMP 251453Z 10008KT 10SM SCT034 32/24 A3010 RMK AO2 SLP195 T03170239 51007 $ Follow KPMP on AV Mobile POMPANO BEACH AIRPARK 954-783-3720
K1J3ICAO ID K1J3 Ponce De Leon Inlet
KPGDFAA ID PGD, ASOS, KPGD 251453Z 31003KT 10SM FEW028 32/23 A3010 RMK AO2 SLP194 T03170233 50006 Follow KPGD on AV Mobile PUNTA GORDA CHARLOTTE COUNTY 135.675 941-639-0076
K1J5ICAO ID K1J5 Santa Rosa Coast Guard Station
KSRQFAA ID SRQ, ASOS, KSRQ 251453Z 22005KT 10SM CLR 31/24 A3008 Follow KSRQ on AV Mobile SARASOTA/BRADENTON INTERNATIONAL . 124.375 941-359-0117
KSEFFAA ID SEF, AWOS-3 SEBRING 119.475 863-655-6424
KSGJFAA ID SGJ, AWOS-3, KSGJ 251504Z 24007KT 10SM BKN030 32/23 A3008 RMK AO2 $ Follow KSGJ on AV Mobile St. Augustine, St. Augustine Airport 904-824-7084
KPIEFAA ID PIE, ASOS, KPIE 251453Z 34003KT 10SM VCTS SCT030 BKN060 27/26 A3010 Follow KPIE on AV Mobile ST PETERSBURG/CLEARWATER 727-531-3456
KSPGFAA ID SPG, ASOS, KSPG 251500Z 00000KT 10SM VCTS SCT040 SCT050 BKN095 27/24 A3008 RMK AO2 LTG DSNT N AND NE RAE1458 TSE1454 P0000 T02720239 $ Follow KSPG on AV Mobile ST PETERSBURG WHITTED AIRPORT 118.875 727-821-4334
KSUAFAA ID SUA, AWOS-3, KSUA 251447Z 00000KT 7SM SCT025 SCT120 30/22 A3011 Follow KSUA on AV Mobile Stuart, Witham Field Airport 772-692-7399
KTLHFAA ID TLH, ASOS, KTLH 251453Z VRB05KT 10SM BKN030 31/22 A3007 Follow KTLH on AV Mobile TALLAHASSEE REGIONAL AIRPORT 850-576-3665
KTBWICAO ID KTBW Tampa Bay Area
KMCFFAA ID MCF, KMCF 251504Z AUTO 26003KT 2 1/2SM -RA BKN029 BKN055 BKN075 32/27 A3010 RMK AO2 VIS 1 3/4V4 LTG DSNT N AND E TSE1504 CIG 026V055 Follow KMCF on AV Mobile Macdill Air Force Base, Fl.
KTPAFAA ID TPA, ASOS, KTPA 251453Z 24008KT 10SM TS BKN034CB 29/24 A3010 Follow KTPA on AV Mobile TAMPA INTERNATIONAL AIRPORT 813-873-7228
KTPFFAA ID TPF, AWOS-3, KTPF 131715Z AUTO 23004KT 10SM CLR 32/23 A3012 RMK AO2 Follow KTPF on AV Mobile Tampa, Peter O Knight Airport 118.925 813-251-6824
KVDFFAA ID VDF, AWOS-3, KVDF 251455Z AUTO 23005KT 10SM SCT046 31/24 A3010 RMK AO2 Follow KVDF on AV Mobile Tampa, Vandenberg Airport 121.125 813-630-0924
KVLGICAO ID KVLG The Villages
KVVGICAO ID KVVG, KVVG 182350Z AUTO RMK AO2 PWINO Follow KVVG on AV Mobile The Villages
KX68ICAO ID KX68 Titusville, NASA Shuttle Landing Facility
KTIXFAA ID TIX, KTIX 251447Z 26006KT 7SM SCT022 30/25 A3010 Follow KTIX on AV Mobile Titusville
KX21FAA ID X21, AWOS-3 Titusville, Arthur Dunn Air Park 119.725 321-385-0383
KTTSFAA ID TTS, KTTS 251458Z AUTO VRB04KT 10SM CLR 30/27 A3010 RMK AO2 SLP196 T03030269 51008 Follow KTTS on AV Mobile Titusville, NASA Shuttle Landing Facility
KVPSFAA ID VPS, KVPS 251455Z 20007KT 10SM FEW020 SCT085 SCT130 30/25 A3003 RMK AO2A SLP174 MDT CU NW-N P0000 60000 T02980245 50005 $ Follow KVPS on AV Mobile Valparaiso / Eglin Air Force Base
KVNCFAA ID VNC, AWOS-3, KVNC 251455Z AUTO 22003KT 10SM CLR 31/24 A3010 RMK AO2 LTG DSNT NE Follow KVNC on AV Mobile VENICE 119.275
KX90ICAO ID KX90 Venice Long Range Navigation
KVRBFAA ID VRB, ASOS, KVRB 251453Z VRB03KT 10SM BKN022 31/26 A3010 Follow KVRB on AV Mobile VERO BEACH MUNICIPAL AIRPORT 772-978-9535
F45FAA ID F45, AWOS-3, KAJZ 251515Z AUTO 06004KT 10SM OVC100 23/11 A3023 RMK AO2 T02310112 Follow  on AV Mobile WEST PALM BEACH 119.975 561-630-6932
KLNAFAA ID LNA, AWOS-3 WEST PALM BEACH 119.925 561-964-0308
KPBIFAA ID PBI, ASOS, KPBI 251453Z 00000KT 10SM SCT025 SCT130 BKN250 32/22 A3009 Follow KPBI on AV Mobile PALM BEACH INTERNATIONAL 123.75 561-683-2548
FD38FAA ID FD38, Belfort WELLINGTON AERO CLUB
X60FAA ID X60, AWOS-3, KAJZ 251515Z AUTO 06004KT 10SM OVC100 23/11 A3023 RMK AO2 T02310112 Follow  on AV Mobile WILLISTON 118.425 352-528-9949
KGIFFAA ID GIF, ASOS, KGIF 251453Z AUTO 23004KT 10SM FEW021 FEW033 30/24 A3011 RMK AO2 SLP195 T03000239 51007 TSNO Follow KGIF on AV Mobile WINTER HAVENS GILBERT AIRPORT 133.675 863-956-2097
KZPHFAA ID ZPH, ASOS, KZPH 251455Z AUTO 22004KT 10SM VCTS SCT027 SCT039 SCT048 31/23 A3010 RMK AO2 LTG DSNT SW AND W Follow KZPH on AV Mobile ZEPHYRHILLS 118.975 813-780-0031

Click on the AV Mobile icon AV Mobile icon by any station to follow that AWOS feed on AirportView.net Mobile.

Garmin aera 796 $1999 at Avionics Specialists LLC
Bose A20 Aviation Headsets $995 at Avionics Specialists LLC